sensor_id;sensor_type;location;lat;lon;timestamp;temperature;humidity
420;DHT22;42600;54.408;13.016;2024-03-08T00:42:07;1.80;92.70
420;DHT22;42600;54.408;13.016;2024-03-08T00:44:57;1.80;92.70
420;DHT22;42600;54.408;13.016;2024-03-08T00:54:57;1.70;92.70
420;DHT22;42600;54.408;13.016;2024-03-08T01:52:59;2.20;92.70
420;DHT22;42600;54.408;13.016;2024-03-08T01:59:41;2.10;92.70
420;DHT22;42600;54.408;13.016;2024-03-08T06:02:56;1.30;92.70
420;DHT22;42600;54.408;13.016;2024-03-08T06:05:24;1.30;92.70
420;DHT22;42600;54.408;13.016;2024-03-08T06:07:50;1.40;92.70
420;DHT22;42600;54.408;13.016;2024-03-08T06:10:19;1.40;92.70
420;DHT22;42600;54.408;13.016;2024-03-08T06:12:46;1.40;92.70
420;DHT22;42600;54.408;13.016;2024-03-08T06:15:13;1.40;92.70
420;DHT22;42600;54.408;13.016;2024-03-08T06:17:40;1.40;92.70
420;DHT22;42600;54.408;13.016;2024-03-08T06:20:09;1.50;92.70
420;DHT22;42600;54.408;13.016;2024-03-08T06:22:38;1.50;92.70
420;DHT22;42600;54.408;13.016;2024-03-08T06:25:06;1.50;92.70
420;DHT22;42600;54.408;13.016;2024-03-08T06:27:35;1.60;92.70
420;DHT22;42600;54.408;13.016;2024-03-08T06:30:09;1.60;92.70
420;DHT22;42600;54.408;13.016;2024-03-08T06:32:38;1.60;92.70
420;DHT22;42600;54.408;13.016;2024-03-08T06:35:19;1.60;92.70
420;DHT22;42600;54.408;13.016;2024-03-08T06:37:54;1.70;92.70
420;DHT22;42600;54.408;13.016;2024-03-08T06:40:34;1.70;92.70
420;DHT22;42600;54.408;13.016;2024-03-08T06:43:15;1.80;92.70
420;DHT22;42600;54.408;13.016;2024-03-08T06:45:49;1.80;92.70
420;DHT22;42600;54.408;13.016;2024-03-08T06:48:51;1.70;92.70
420;DHT22;42600;54.408;13.016;2024-03-08T06:51:33;1.80;92.70
420;DHT22;42600;54.408;13.016;2024-03-08T06:54:04;1.90;92.70
420;DHT22;42600;54.408;13.016;2024-03-08T06:56:37;1.90;92.70
420;DHT22;42600;54.408;13.016;2024-03-08T06:59:11;1.90;92.70
420;DHT22;42600;54.408;13.016;2024-03-08T07:01:51;2.00;92.70
420;DHT22;42600;54.408;13.016;2024-03-08T07:04:21;2.00;92.70
420;DHT22;42600;54.408;13.016;2024-03-08T07:06:54;2.00;92.70
420;DHT22;42600;54.408;13.016;2024-03-08T07:09:25;2.00;92.70
420;DHT22;42600;54.408;13.016;2024-03-08T07:12:00;2.00;92.70
420;DHT22;42600;54.408;13.016;2024-03-08T07:14:27;2.10;92.70
420;DHT22;42600;54.408;13.016;2024-03-08T07:16:57;2.10;92.70
420;DHT22;42600;54.408;13.016;2024-03-08T07:19:24;2.10;92.70
420;DHT22;42600;54.408;13.016;2024-03-08T07:21:54;2.10;92.70
420;DHT22;42600;54.408;13.016;2024-03-08T07:24:23;2.10;92.70
420;DHT22;42600;54.408;13.016;2024-03-08T07:27:05;2.10;92.70
420;DHT22;42600;54.408;13.016;2024-03-08T07:29:34;2.20;92.70
420;DHT22;42600;54.408;13.016;2024-03-08T07:32:02;2.20;92.70
420;DHT22;42600;54.408;13.016;2024-03-08T07:34:44;2.20;92.70
420;DHT22;42600;54.408;13.016;2024-03-08T07:37:29;2.20;92.70
420;DHT22;42600;54.408;13.016;2024-03-08T07:39:57;2.20;92.70
420;DHT22;42600;54.408;13.016;2024-03-08T07:42:27;2.30;92.70
420;DHT22;42600;54.408;13.016;2024-03-08T07:45:34;2.20;92.70
420;DHT22;42600;54.408;13.016;2024-03-08T07:51:31;2.20;92.70
420;DHT22;42600;54.408;13.016;2024-03-08T07:57:22;2.40;92.70
420;DHT22;42600;54.408;13.016;2024-03-08T08:00:23;2.40;92.70
420;DHT22;42600;54.408;13.016;2024-03-08T08:03:08;2.40;92.70
420;DHT22;42600;54.408;13.016;2024-03-08T08:05:50;2.40;92.70
420;DHT22;42600;54.408;13.016;2024-03-08T08:08:19;2.40;92.70
420;DHT22;42600;54.408;13.016;2024-03-08T08:10:45;2.50;92.70
420;DHT22;42600;54.408;13.016;2024-03-08T08:13:13;2.40;92.70
420;DHT22;42600;54.408;13.016;2024-03-08T08:15:41;2.50;92.70
420;DHT22;42600;54.408;13.016;2024-03-08T08:18:08;2.50;92.70
420;DHT22;42600;54.408;13.016;2024-03-08T08:20:35;2.50;92.70
420;DHT22;42600;54.408;13.016;2024-03-08T08:23:03;2.60;92.70
420;DHT22;42600;54.408;13.016;2024-03-08T08:25:30;2.60;92.70
420;DHT22;42600;54.408;13.016;2024-03-08T08:27:56;2.70;92.70
420;DHT22;42600;54.408;13.016;2024-03-08T08:30:24;2.70;92.70
420;DHT22;42600;54.408;13.016;2024-03-08T08:32:51;2.70;92.70
420;DHT22;42600;54.408;13.016;2024-03-08T08:35:17;2.80;92.70
420;DHT22;42600;54.408;13.016;2024-03-08T08:37:45;2.80;92.70
420;DHT22;42600;54.408;13.016;2024-03-08T08:40:12;2.80;92.70
420;DHT22;42600;54.408;13.016;2024-03-08T08:42:43;2.80;92.70
420;DHT22;42600;54.408;13.016;2024-03-08T08:45:11;2.80;92.70
420;DHT22;42600;54.408;13.016;2024-03-08T08:47:39;2.80;92.70
420;DHT22;42600;54.408;13.016;2024-03-08T08:50:08;2.80;92.70
420;DHT22;42600;54.408;13.016;2024-03-08T08:52:37;2.90;92.70
420;DHT22;42600;54.408;13.016;2024-03-08T08:55:09;2.80;92.70
420;DHT22;42600;54.408;13.016;2024-03-08T08:57:39;2.90;92.70
420;DHT22;42600;54.408;13.016;2024-03-08T09:00:07;3.00;92.70
420;DHT22;42600;54.408;13.016;2024-03-08T09:02:34;3.00;92.70
420;DHT22;42600;54.408;13.016;2024-03-08T09:05:04;3.00;92.70
420;DHT22;42600;54.408;13.016;2024-03-08T09:07:33;3.00;92.70
420;DHT22;42600;54.408;13.016;2024-03-08T09:09:59;3.00;92.70
420;DHT22;42600;54.408;13.016;2024-03-08T09:12:26;3.10;92.70
420;DHT22;42600;54.408;13.016;2024-03-08T09:14:53;3.10;92.70
420;DHT22;42600;54.408;13.016;2024-03-08T09:17:21;3.00;92.70
420;DHT22;42600;54.408;13.016;2024-03-08T09:19:48;3.10;92.70
420;DHT22;42600;54.408;13.016;2024-03-08T09:22:16;3.20;92.70
420;DHT22;42600;54.408;13.016;2024-03-08T09:24:43;3.20;92.70
420;DHT22;42600;54.408;13.016;2024-03-08T09:27:11;3.20;92.70
420;DHT22;42600;54.408;13.016;2024-03-08T09:29:39;3.20;92.70
420;DHT22;42600;54.408;13.016;2024-03-08T09:32:06;3.30;92.70
420;DHT22;42600;54.408;13.016;2024-03-08T09:34:33;3.30;92.70
420;DHT22;42600;54.408;13.016;2024-03-08T09:37:04;3.40;92.70
420;DHT22;42600;54.408;13.016;2024-03-08T09:39:32;3.40;92.70
420;DHT22;42600;54.408;13.016;2024-03-08T09:41:59;3.30;92.70
420;DHT22;42600;54.408;13.016;2024-03-08T09:44:27;3.40;92.70
420;DHT22;42600;54.408;13.016;2024-03-08T09:46:54;3.40;92.70
420;DHT22;42600;54.408;13.016;2024-03-08T09:49:23;3.60;92.70
420;DHT22;42600;54.408;13.016;2024-03-08T09:51:50;3.60;92.70
420;DHT22;42600;54.408;13.016;2024-03-08T09:54:18;3.60;92.70
420;DHT22;42600;54.408;13.016;2024-03-08T09:56:48;3.50;92.70
420;DHT22;42600;54.408;13.016;2024-03-08T09:59:15;3.50;92.70
420;DHT22;42600;54.408;13.016;2024-03-08T10:02:07;3.60;92.70
420;DHT22;42600;54.408;13.016;2024-03-08T10:04:40;3.70;92.70
420;DHT22;42600;54.408;13.016;2024-03-08T10:07:08;3.70;92.70
420;DHT22;42600;54.408;13.016;2024-03-08T10:09:35;3.80;92.70
420;DHT22;42600;54.408;13.016;2024-03-08T10:12:11;3.90;92.70
420;DHT22;42600;54.408;13.016;2024-03-08T10:14:42;4.00;92.70
420;DHT22;42600;54.408;13.016;2024-03-08T10:17:23;4.10;92.70
420;DHT22;42600;54.408;13.016;2024-03-08T10:19:51;4.30;92.70
420;DHT22;42600;54.408;13.016;2024-03-08T10:22:20;4.20;92.70
420;DHT22;42600;54.408;13.016;2024-03-08T10:24:46;4.30;92.70
420;DHT22;42600;54.408;13.016;2024-03-08T10:27:16;4.30;92.70
420;DHT22;42600;54.408;13.016;2024-03-08T10:29:43;4.40;92.70
420;DHT22;42600;54.408;13.016;2024-03-08T10:32:13;4.30;92.70
420;DHT22;42600;54.408;13.016;2024-03-08T10:34:39;4.30;92.70
420;DHT22;42600;54.408;13.016;2024-03-08T10:37:07;4.30;92.70
420;DHT22;42600;54.408;13.016;2024-03-08T10:39:40;4.50;92.70
420;DHT22;42600;54.408;13.016;2024-03-08T10:42:11;4.50;92.70
420;DHT22;42600;54.408;13.016;2024-03-08T10:44:59;4.50;92.70
420;DHT22;42600;54.408;13.016;2024-03-08T10:47:27;4.40;92.70
420;DHT22;42600;54.408;13.016;2024-03-08T10:50:03;4.60;92.70
420;DHT22;42600;54.408;13.016;2024-03-08T10:52:34;4.60;92.70
420;DHT22;42600;54.408;13.016;2024-03-08T10:55:02;4.60;92.70
420;DHT22;42600;54.408;13.016;2024-03-08T10:57:30;4.70;92.70
420;DHT22;42600;54.408;13.016;2024-03-08T10:59:58;4.70;92.70
420;DHT22;42600;54.408;13.016;2024-03-08T11:02:25;4.60;92.70
420;DHT22;42600;54.408;13.016;2024-03-08T11:04:53;4.60;92.70
420;DHT22;42600;54.408;13.016;2024-03-08T11:07:22;4.60;92.70
420;DHT22;42600;54.408;13.016;2024-03-08T11:09:50;4.70;92.70
420;DHT22;42600;54.408;13.016;2024-03-08T11:12:22;4.70;92.70
420;DHT22;42600;54.408;13.016;2024-03-08T11:14:52;4.70;92.70
420;DHT22;42600;54.408;13.016;2024-03-08T11:17:40;4.70;92.70
420;DHT22;42600;54.408;13.016;2024-03-08T11:20:10;4.80;92.70
420;DHT22;42600;54.408;13.016;2024-03-08T11:22:41;4.70;92.70
420;DHT22;42600;54.408;13.016;2024-03-08T11:25:30;4.70;92.70
420;DHT22;42600;54.408;13.016;2024-03-08T11:28:07;4.80;92.70
420;DHT22;42600;54.408;13.016;2024-03-08T11:30:34;5.00;92.70
420;DHT22;42600;54.408;13.016;2024-03-08T11:33:05;5.00;92.70
420;DHT22;42600;54.408;13.016;2024-03-08T11:35:33;4.90;92.70
420;DHT22;42600;54.408;13.016;2024-03-08T11:38:00;4.90;92.70
420;DHT22;42600;54.408;13.016;2024-03-08T11:40:27;5.00;92.70
420;DHT22;42600;54.408;13.016;2024-03-08T11:42:52;5.00;92.70
420;DHT22;42600;54.408;13.016;2024-03-08T11:45:20;4.90;92.70
420;DHT22;42600;54.408;13.016;2024-03-08T11:47:47;4.80;92.70
420;DHT22;42600;54.408;13.016;2024-03-08T11:50:15;4.90;92.70
420;DHT22;42600;54.408;13.016;2024-03-08T11:52:44;4.90;92.70
420;DHT22;42600;54.408;13.016;2024-03-08T11:55:11;5.00;92.70
420;DHT22;42600;54.408;13.016;2024-03-08T11:57:39;5.00;92.70
420;DHT22;42600;54.408;13.016;2024-03-08T12:00:06;5.00;92.70
420;DHT22;42600;54.408;13.016;2024-03-08T12:02:47;5.10;92.70
420;DHT22;42600;54.408;13.016;2024-03-08T12:05:19;5.10;92.70
420;DHT22;42600;54.408;13.016;2024-03-08T12:07:56;5.20;92.70
420;DHT22;42600;54.408;13.016;2024-03-08T12:10:23;5.30;92.70
420;DHT22;42600;54.408;13.016;2024-03-08T12:12:52;5.20;92.70
420;DHT22;42600;54.408;13.016;2024-03-08T12:15:20;5.20;92.70
420;DHT22;42600;54.408;13.016;2024-03-08T12:17:48;5.20;92.70
420;DHT22;42600;54.408;13.016;2024-03-08T12:20:19;5.20;92.70
420;DHT22;42600;54.408;13.016;2024-03-08T12:22:48;5.30;92.70
420;DHT22;42600;54.408;13.016;2024-03-08T12:25:15;5.40;92.70
420;DHT22;42600;54.408;13.016;2024-03-08T12:27:43;5.40;92.70
420;DHT22;42600;54.408;13.016;2024-03-08T12:30:20;5.40;92.70
420;DHT22;42600;54.408;13.016;2024-03-08T12:32:53;5.50;92.70
420;DHT22;42600;54.408;13.016;2024-03-08T12:35:24;5.60;92.70
420;DHT22;42600;54.408;13.016;2024-03-08T12:37:53;5.80;92.70
420;DHT22;42600;54.408;13.016;2024-03-08T12:40:26;5.80;92.70
420;DHT22;42600;54.408;13.016;2024-03-08T12:42:53;5.90;92.70
420;DHT22;42600;54.408;13.016;2024-03-08T12:45:20;5.90;92.70
420;DHT22;42600;54.408;13.016;2024-03-08T12:47:49;5.90;92.70
420;DHT22;42600;54.408;13.016;2024-03-08T12:50:16;6.00;92.70
420;DHT22;42600;54.408;13.016;2024-03-08T12:52:44;5.90;92.70
420;DHT22;42600;54.408;13.016;2024-03-08T12:55:11;5.90;92.70
420;DHT22;42600;54.408;13.016;2024-03-08T12:57:38;5.90;92.70
420;DHT22;42600;54.408;13.016;2024-03-08T13:00:05;5.90;92.70
420;DHT22;42600;54.408;13.016;2024-03-08T13:02:38;5.80;92.70
420;DHT22;42600;54.408;13.016;2024-03-08T13:05:05;5.80;92.70
420;DHT22;42600;54.408;13.016;2024-03-08T13:07:35;5.90;92.70
420;DHT22;42600;54.408;13.016;2024-03-08T13:10:04;5.90;92.70
420;DHT22;42600;54.408;13.016;2024-03-08T13:12:32;5.90;92.70
420;DHT22;42600;54.408;13.016;2024-03-08T13:15:00;5.90;92.70
420;DHT22;42600;54.408;13.016;2024-03-08T13:17:26;6.00;92.70
420;DHT22;42600;54.408;13.016;2024-03-08T13:19:54;6.10;92.70
420;DHT22;42600;54.408;13.016;2024-03-08T13:22:22;6.00;92.70
420;DHT22;42600;54.408;13.016;2024-03-08T13:24:50;6.10;92.70
420;DHT22;42600;54.408;13.016;2024-03-08T13:27:18;6.10;92.70
420;DHT22;42600;54.408;13.016;2024-03-08T13:29:46;6.00;92.70
420;DHT22;42600;54.408;13.016;2024-03-08T13:32:14;6.10;92.70
420;DHT22;42600;54.408;13.016;2024-03-08T13:34:41;6.30;92.70
420;DHT22;42600;54.408;13.016;2024-03-08T13:37:08;6.50;92.70
420;DHT22;42600;54.408;13.016;2024-03-08T13:39:35;6.60;92.70
420;DHT22;42600;54.408;13.016;2024-03-08T13:42:06;6.70;92.70
420;DHT22;42600;54.408;13.016;2024-03-08T13:44:36;6.70;92.70
420;DHT22;42600;54.408;13.016;2024-03-08T13:47:03;6.70;92.70
420;DHT22;42600;54.408;13.016;2024-03-08T13:49:30;6.70;92.70
420;DHT22;42600;54.408;13.016;2024-03-08T13:51:57;6.70;92.70
420;DHT22;42600;54.408;13.016;2024-03-08T13:54:24;6.70;92.70
420;DHT22;42600;54.408;13.016;2024-03-08T13:56:52;6.80;92.70
420;DHT22;42600;54.408;13.016;2024-03-08T13:59:19;6.70;92.70
420;DHT22;42600;54.408;13.016;2024-03-08T14:01:49;6.70;92.70
420;DHT22;42600;54.408;13.016;2024-03-08T14:04:16;6.70;92.70
420;DHT22;42600;54.408;13.016;2024-03-08T14:06:43;6.70;92.70
420;DHT22;42600;54.408;13.016;2024-03-08T14:09:10;6.80;92.70
420;DHT22;42600;54.408;13.016;2024-03-08T14:11:42;6.70;92.70
420;DHT22;42600;54.408;13.016;2024-03-08T14:14:09;6.60;92.70
420;DHT22;42600;54.408;13.016;2024-03-08T14:16:37;6.60;92.70
420;DHT22;42600;54.408;13.016;2024-03-08T14:19:05;6.60;92.70
420;DHT22;42600;54.408;13.016;2024-03-08T14:21:32;6.60;92.70
420;DHT22;42600;54.408;13.016;2024-03-08T14:23:59;6.60;92.70
420;DHT22;42600;54.408;13.016;2024-03-08T14:26:26;6.70;92.70
420;DHT22;42600;54.408;13.016;2024-03-08T14:28:53;6.50;91.50
420;DHT22;42600;54.408;13.016;2024-03-08T14:31:19;6.50;92.70
420;DHT22;42600;54.408;13.016;2024-03-08T14:33:49;6.50;92.70
420;DHT22;42600;54.408;13.016;2024-03-08T14:36:17;6.50;92.60
420;DHT22;42600;54.408;13.016;2024-03-08T14:38:45;6.40;92.40
420;DHT22;42600;54.408;13.016;2024-03-08T14:41:12;6.50;92.70
420;DHT22;42600;54.408;13.016;2024-03-08T14:43:39;6.40;92.70
420;DHT22;42600;54.408;13.016;2024-03-08T14:46:05;6.40;92.70
420;DHT22;42600;54.408;13.016;2024-03-08T14:48:33;6.40;92.70
420;DHT22;42600;54.408;13.016;2024-03-08T14:51:02;6.30;92.70
420;DHT22;42600;54.408;13.016;2024-03-08T14:53:30;6.20;92.70
420;DHT22;42600;54.408;13.016;2024-03-08T14:55:57;6.30;92.70
420;DHT22;42600;54.408;13.016;2024-03-08T14:58:24;6.20;92.70
420;DHT22;42600;54.408;13.016;2024-03-08T15:00:53;6.10;92.70
420;DHT22;42600;54.408;13.016;2024-03-08T15:03:21;6.10;92.70
420;DHT22;42600;54.408;13.016;2024-03-08T15:05:51;6.10;92.70
420;DHT22;42600;54.408;13.016;2024-03-08T15:08:19;6.10;92.70
420;DHT22;42600;54.408;13.016;2024-03-08T15:10:49;6.10;92.70
420;DHT22;42600;54.408;13.016;2024-03-08T15:13:19;6.00;92.70
420;DHT22;42600;54.408;13.016;2024-03-08T15:15:48;6.00;92.70
420;DHT22;42600;54.408;13.016;2024-03-08T15:18:21;6.00;92.70
420;DHT22;42600;54.408;13.016;2024-03-08T15:20:51;6.00;92.70
420;DHT22;42600;54.408;13.016;2024-03-08T15:23:18;5.90;92.70
420;DHT22;42600;54.408;13.016;2024-03-08T15:25:46;5.80;92.70
420;DHT22;42600;54.408;13.016;2024-03-08T15:28:15;5.80;92.70
420;DHT22;42600;54.408;13.016;2024-03-08T15:30:45;5.80;92.70
420;DHT22;42600;54.408;13.016;2024-03-08T15:33:17;5.70;92.70
420;DHT22;42600;54.408;13.016;2024-03-08T15:35:49;5.70;92.70
420;DHT22;42600;54.408;13.016;2024-03-08T15:38:23;5.60;92.70
420;DHT22;42600;54.408;13.016;2024-03-08T15:40:50;5.60;92.70
420;DHT22;42600;54.408;13.016;2024-03-08T15:43:18;5.60;92.70
420;DHT22;42600;54.408;13.016;2024-03-08T15:45:45;5.50;92.70
420;DHT22;42600;54.408;13.016;2024-03-08T15:48:11;5.50;92.70
420;DHT22;42600;54.408;13.016;2024-03-08T15:50:38;5.50;92.70
420;DHT22;42600;54.408;13.016;2024-03-08T15:53:05;5.40;92.70
420;DHT22;42600;54.408;13.016;2024-03-08T15:55:31;5.30;92.70
420;DHT22;42600;54.408;13.016;2024-03-08T15:58:00;5.30;92.70
420;DHT22;42600;54.408;13.016;2024-03-08T16:00:28;5.20;92.70
420;DHT22;42600;54.408;13.016;2024-03-08T16:03:01;5.20;92.70
420;DHT22;42600;54.408;13.016;2024-03-08T16:05:32;5.20;92.70
420;DHT22;42600;54.408;13.016;2024-03-08T16:07:58;5.10;92.70
420;DHT22;42600;54.408;13.016;2024-03-08T16:10:25;5.00;92.70
420;DHT22;42600;54.408;13.016;2024-03-08T16:12:54;5.00;92.70
420;DHT22;42600;54.408;13.016;2024-03-08T16:15:20;4.90;92.70
420;DHT22;42600;54.408;13.016;2024-03-08T16:17:48;4.90;92.70
420;DHT22;42600;54.408;13.016;2024-03-08T16:20:15;4.80;92.70
420;DHT22;42600;54.408;13.016;2024-03-08T16:22:43;4.70;92.70
420;DHT22;42600;54.408;13.016;2024-03-08T16:25:11;4.70;92.70
420;DHT22;42600;54.408;13.016;2024-03-08T16:27:39;4.70;92.70
420;DHT22;42600;54.408;13.016;2024-03-08T16:30:06;4.60;92.70
420;DHT22;42600;54.408;13.016;2024-03-08T16:32:35;4.50;92.70
420;DHT22;42600;54.408;13.016;2024-03-08T16:35:04;4.50;92.70
420;DHT22;42600;54.408;13.016;2024-03-08T16:37:36;4.40;92.70
420;DHT22;42600;54.408;13.016;2024-03-08T16:40:02;4.40;92.70
420;DHT22;42600;54.408;13.016;2024-03-08T16:42:30;4.30;92.70
420;DHT22;42600;54.408;13.016;2024-03-08T16:44:55;4.30;92.70
420;DHT22;42600;54.408;13.016;2024-03-08T16:47:22;4.20;92.70
420;DHT22;42600;54.408;13.016;2024-03-08T16:49:49;4.20;92.70
420;DHT22;42600;54.408;13.016;2024-03-08T16:52:16;4.10;92.70
420;DHT22;42600;54.408;13.016;2024-03-08T16:54:45;4.00;92.70
420;DHT22;42600;54.408;13.016;2024-03-08T16:57:12;4.00;92.70
420;DHT22;42600;54.408;13.016;2024-03-08T16:59:39;4.00;92.70
420;DHT22;42600;54.408;13.016;2024-03-08T17:02:06;3.90;92.70
420;DHT22;42600;54.408;13.016;2024-03-08T17:04:35;3.80;92.70
420;DHT22;42600;54.408;13.016;2024-03-08T17:07:02;3.80;92.70
420;DHT22;42600;54.408;13.016;2024-03-08T17:09:32;3.70;92.70
420;DHT22;42600;54.408;13.016;2024-03-08T17:12:00;3.70;92.70
420;DHT22;42600;54.408;13.016;2024-03-08T17:14:29;3.70;92.70
420;DHT22;42600;54.408;13.016;2024-03-08T17:16:56;3.60;92.70
420;DHT22;42600;54.408;13.016;2024-03-08T17:19:23;3.50;92.70
420;DHT22;42600;54.408;13.016;2024-03-08T17:21:51;3.50;92.70
420;DHT22;42600;54.408;13.016;2024-03-08T17:24:19;3.50;92.70
420;DHT22;42600;54.408;13.016;2024-03-08T17:26:53;3.50;92.70
420;DHT22;42600;54.408;13.016;2024-03-08T17:29:19;3.40;92.70
420;DHT22;42600;54.408;13.016;2024-03-08T17:31:46;3.40;92.70
420;DHT22;42600;54.408;13.016;2024-03-08T17:34:15;3.30;92.70
420;DHT22;42600;54.408;13.016;2024-03-08T17:36:43;3.30;92.70
420;DHT22;42600;54.408;13.016;2024-03-08T17:39:11;3.30;92.70
420;DHT22;42600;54.408;13.016;2024-03-08T17:41:44;3.20;92.70
420;DHT22;42600;54.408;13.016;2024-03-08T17:44:15;3.20;92.70
420;DHT22;42600;54.408;13.016;2024-03-08T17:46:42;3.10;92.70
420;DHT22;42600;54.408;13.016;2024-03-08T17:49:09;3.10;92.70
420;DHT22;42600;54.408;13.016;2024-03-08T17:51:36;3.10;92.70
420;DHT22;42600;54.408;13.016;2024-03-08T17:54:04;3.00;92.70
420;DHT22;42600;54.408;13.016;2024-03-08T17:56:32;3.00;92.70
420;DHT22;42600;54.408;13.016;2024-03-08T17:58:58;3.00;92.70
420;DHT22;42600;54.408;13.016;2024-03-08T18:01:28;2.90;92.70
420;DHT22;42600;54.408;13.016;2024-03-08T18:03:55;2.80;92.70
420;DHT22;42600;54.408;13.016;2024-03-08T18:06:22;2.70;92.70
420;DHT22;42600;54.408;13.016;2024-03-08T18:08:51;2.70;92.70
420;DHT22;42600;54.408;13.016;2024-03-08T18:11:18;2.70;92.70
420;DHT22;42600;54.408;13.016;2024-03-08T18:13:48;2.70;92.70
420;DHT22;42600;54.408;13.016;2024-03-08T18:16:17;2.60;92.70
420;DHT22;42600;54.408;13.016;2024-03-08T18:18:45;2.60;92.70
420;DHT22;42600;54.408;13.016;2024-03-08T18:21:14;2.60;92.70
420;DHT22;42600;54.408;13.016;2024-03-08T18:23:41;2.60;92.70
420;DHT22;42600;54.408;13.016;2024-03-08T18:26:10;2.60;92.70
420;DHT22;42600;54.408;13.016;2024-03-08T18:28:38;2.60;92.70
420;DHT22;42600;54.408;13.016;2024-03-08T18:31:06;2.60;92.70
420;DHT22;42600;54.408;13.016;2024-03-08T18:33:33;2.60;92.70
420;DHT22;42600;54.408;13.016;2024-03-08T18:36:01;2.60;92.70
420;DHT22;42600;54.408;13.016;2024-03-08T18:38:32;2.60;92.70
420;DHT22;42600;54.408;13.016;2024-03-08T18:40:58;2.60;92.70
420;DHT22;42600;54.408;13.016;2024-03-08T18:43:26;2.60;92.70
420;DHT22;42600;54.408;13.016;2024-03-08T18:45:53;2.60;92.70
420;DHT22;42600;54.408;13.016;2024-03-08T18:48:20;2.60;92.70
420;DHT22;42600;54.408;13.016;2024-03-08T18:50:46;2.60;92.70
420;DHT22;42600;54.408;13.016;2024-03-08T18:53:14;2.60;92.70
420;DHT22;42600;54.408;13.016;2024-03-08T18:55:41;2.60;92.70
420;DHT22;42600;54.408;13.016;2024-03-08T18:58:09;2.60;92.70
420;DHT22;42600;54.408;13.016;2024-03-08T19:00:36;2.60;92.70
420;DHT22;42600;54.408;13.016;2024-03-08T19:03:04;2.70;92.70
420;DHT22;42600;54.408;13.016;2024-03-08T19:05:33;2.70;92.70
420;DHT22;42600;54.408;13.016;2024-03-08T19:08:02;2.70;92.70
420;DHT22;42600;54.408;13.016;2024-03-08T19:10:33;2.70;92.70
420;DHT22;42600;54.408;13.016;2024-03-08T19:13:01;2.70;92.70
420;DHT22;42600;54.408;13.016;2024-03-08T19:15:29;2.60;92.70
420;DHT22;42600;54.408;13.016;2024-03-08T19:17:58;2.60;92.70
420;DHT22;42600;54.408;13.016;2024-03-08T19:20:28;2.60;92.70
420;DHT22;42600;54.408;13.016;2024-03-08T19:22:59;2.60;92.70
420;DHT22;42600;54.408;13.016;2024-03-08T19:25:28;2.60;92.70
420;DHT22;42600;54.408;13.016;2024-03-08T19:27:56;2.60;92.70
420;DHT22;42600;54.408;13.016;2024-03-08T19:30:25;2.60;92.70
420;DHT22;42600;54.408;13.016;2024-03-08T19:32:56;2.60;92.70
420;DHT22;42600;54.408;13.016;2024-03-08T19:35:23;2.60;92.70
420;DHT22;42600;54.408;13.016;2024-03-08T19:37:50;2.60;92.70
420;DHT22;42600;54.408;13.016;2024-03-08T19:40:21;2.60;92.70
420;DHT22;42600;54.408;13.016;2024-03-08T19:42:50;2.60;92.70
420;DHT22;42600;54.408;13.016;2024-03-08T19:45:19;2.60;92.70
420;DHT22;42600;54.408;13.016;2024-03-08T19:47:46;2.60;92.70
420;DHT22;42600;54.408;13.016;2024-03-08T19:50:14;2.60;92.70
420;DHT22;42600;54.408;13.016;2024-03-08T19:52:43;2.70;92.70
420;DHT22;42600;54.408;13.016;2024-03-08T19:55:11;2.70;92.70
420;DHT22;42600;54.408;13.016;2024-03-08T19:57:39;2.70;92.70
420;DHT22;42600;54.408;13.016;2024-03-08T20:00:07;2.70;92.70
420;DHT22;42600;54.408;13.016;2024-03-08T20:02:41;2.70;92.70
420;DHT22;42600;54.408;13.016;2024-03-08T20:05:08;2.70;92.70
420;DHT22;42600;54.408;13.016;2024-03-08T20:07:38;2.60;92.70
420;DHT22;42600;54.408;13.016;2024-03-08T20:10:05;2.60;92.70
420;DHT22;42600;54.408;13.016;2024-03-08T20:12:35;2.70;92.70
420;DHT22;42600;54.408;13.016;2024-03-08T20:15:02;2.70;92.70
420;DHT22;42600;54.408;13.016;2024-03-08T20:17:29;2.70;92.70
420;DHT22;42600;54.408;13.016;2024-03-08T20:19:57;2.70;92.70
420;DHT22;42600;54.408;13.016;2024-03-08T20:22:26;2.70;92.70
420;DHT22;42600;54.408;13.016;2024-03-08T20:24:52;2.70;92.70
420;DHT22;42600;54.408;13.016;2024-03-08T20:27:20;2.70;92.70
420;DHT22;42600;54.408;13.016;2024-03-08T20:29:49;2.70;92.70
420;DHT22;42600;54.408;13.016;2024-03-08T20:32:15;2.70;92.70
420;DHT22;42600;54.408;13.016;2024-03-08T20:34:45;2.70;92.70
420;DHT22;42600;54.408;13.016;2024-03-08T20:37:13;2.70;92.70
420;DHT22;42600;54.408;13.016;2024-03-08T20:39:39;2.70;92.70
420;DHT22;42600;54.408;13.016;2024-03-08T20:42:08;2.70;92.70
420;DHT22;42600;54.408;13.016;2024-03-08T20:44:34;2.70;92.70
420;DHT22;42600;54.408;13.016;2024-03-08T20:47:02;2.70;92.70
420;DHT22;42600;54.408;13.016;2024-03-08T20:49:29;2.70;92.70
420;DHT22;42600;54.408;13.016;2024-03-08T20:51:56;2.70;92.70
420;DHT22;42600;54.408;13.016;2024-03-08T20:54:24;2.70;92.70
420;DHT22;42600;54.408;13.016;2024-03-08T20:56:50;2.70;92.70
420;DHT22;42600;54.408;13.016;2024-03-08T20:59:18;2.80;92.70
420;DHT22;42600;54.408;13.016;2024-03-08T21:01:45;2.80;92.70
420;DHT22;42600;54.408;13.016;2024-03-08T21:04:11;2.80;92.70
420;DHT22;42600;54.408;13.016;2024-03-08T21:06:43;2.80;92.70
420;DHT22;42600;54.408;13.016;2024-03-08T21:09:10;2.80;92.70
420;DHT22;42600;54.408;13.016;2024-03-08T21:11:39;2.80;92.70
420;DHT22;42600;54.408;13.016;2024-03-08T21:14:06;2.80;92.70
420;DHT22;42600;54.408;13.016;2024-03-08T21:16:36;2.80;92.70
420;DHT22;42600;54.408;13.016;2024-03-08T21:19:02;2.80;92.70
420;DHT22;42600;54.408;13.016;2024-03-08T21:21:31;2.80;92.70
420;DHT22;42600;54.408;13.016;2024-03-08T21:23:57;2.70;92.70
420;DHT22;42600;54.408;13.016;2024-03-08T21:26:25;2.70;92.70
420;DHT22;42600;54.408;13.016;2024-03-08T21:28:52;2.70;92.70
420;DHT22;42600;54.408;13.016;2024-03-08T21:31:19;2.70;92.70
420;DHT22;42600;54.408;13.016;2024-03-08T21:33:48;2.70;92.70
420;DHT22;42600;54.408;13.016;2024-03-08T21:36:15;2.70;92.70
420;DHT22;42600;54.408;13.016;2024-03-08T21:38:42;2.70;92.70
420;DHT22;42600;54.408;13.016;2024-03-08T21:41:09;2.70;92.70
420;DHT22;42600;54.408;13.016;2024-03-08T21:43:37;2.70;92.70
420;DHT22;42600;54.408;13.016;2024-03-08T21:46:05;2.70;92.70
420;DHT22;42600;54.408;13.016;2024-03-08T21:48:32;2.70;92.70
420;DHT22;42600;54.408;13.016;2024-03-08T21:50:59;2.60;92.70
420;DHT22;42600;54.408;13.016;2024-03-08T21:53:25;2.60;92.70
420;DHT22;42600;54.408;13.016;2024-03-08T21:55:52;2.60;92.70
420;DHT22;42600;54.408;13.016;2024-03-08T21:58:20;2.60;92.70
420;DHT22;42600;54.408;13.016;2024-03-08T22:00:47;2.70;92.70
420;DHT22;42600;54.408;13.016;2024-03-08T22:03:15;2.70;92.70
420;DHT22;42600;54.408;13.016;2024-03-08T22:05:42;2.60;92.70
420;DHT22;42600;54.408;13.016;2024-03-08T22:08:10;2.70;92.70
420;DHT22;42600;54.408;13.016;2024-03-08T22:10:37;2.70;92.70